Home   Weather   USA   Uvalde   Past weeks
Flag for USA

Past Weather in Uvalde, Texas, USA — Yesterday and Last 2 Weeks

Currently: 73 °F. Passing clouds. (Weather station: Garner Field Airport, USA). See more current weather

Past Weather in Uvalde — Graph

°F

Uvalde Temperature Yesterday

Maximum temperature yesterday: 69 °F (at 4:15 pm)
Minimum temperature yesterday: 64 °F (at 11:15 am)
Average temperature yesterday: 67 °F

High & Low Weather Summary for the Past Weeks

  Temperature Humidity Pressure
High 90 °F (May 5, 5:35 pm) 100% (Apr 25, 4:35 am) 30.04 "Hg (Apr 25, 4:35 am)
Low 64 °F (May 8, 7:15 am) 49% (Apr 24, 5:55 pm) 29.67 "Hg (Apr 25, 7:35 pm)
Average 75 °F 83% 29.82 "Hg
* Reported Apr 23 10:35 pm — May 8 10:35 pm, Uvalde. Weather by CustomWeather, © 2026

Note: Actual official high and low records may vary slightly from our data, if they occured in-between our weather recording intervals... More about our weather records

Uvalde Weather History for the Previous 24 Hours

Scroll right to see more
  Conditions Comfort    
Time   Temp Weather Wind   Humidity Barometer Visibility
10:35 pm
Fri, May 8
73 °F Partly cloudy. 3 mph 85% 29.83 "Hg 10 mi
10:15 pm 74 °F Mostly cloudy. 5 mph 83% 29.83 "Hg 10 mi
9:55 pm 74 °F Overcast. 6 mph 83% 29.80 "Hg 10 mi
9:35 pm 74 °F Overcast. 7 mph 83% 29.79 "Hg 10 mi
8:55 pm 75 °F Overcast. 6 mph 83% 29.78 "Hg 10 mi
8:35 pm 75 °F Overcast. 3 mph 82% 29.78 "Hg 10 mi
7:55 pm 76 °F Passing clouds. 5 mph 78% 29.77 "Hg 10 mi
7:35 pm 77 °F Passing clouds. 6 mph 75% 29.77 "Hg 10 mi
7:15 pm 78 °F Passing clouds. 7 mph 73% 29.77 "Hg 10 mi
6:55 pm 78 °F Overcast. 6 mph 73% 29.77 "Hg 10 mi
6:35 pm 78 °F Mostly cloudy. 6 mph 72% 29.77 "Hg 10 mi
5:55 pm 79 °F Partly sunny. 9 mph 71% 29.77 "Hg 10 mi
5:35 pm 79 °F Overcast. 8 mph 72% 29.77 "Hg 10 mi
5:15 pm 78 °F Broken clouds. 8 mph 73% 29.78 "Hg 10 mi
4:55 pm 77 °F Cloudy. 8 mph 76% 29.79 "Hg 10 mi
4:35 pm 77 °F More clouds than sun. 7 mph 76% 29.79 "Hg 10 mi
3:55 pm 77 °F Overcast. 9 mph 77% 29.81 "Hg 10 mi
3:35 pm 75 °F Mostly cloudy. 7 mph 79% 29.82 "Hg 10 mi
2:55 pm 74 °F Overcast. 6 mph 81% 29.83 "Hg 10 mi
2:35 pm 74 °F Overcast. 3 mph 79% 29.83 "Hg 10 mi
2:15 pm 73 °F Overcast. 5 mph 80% 29.84 "Hg 10 mi
1:55 pm 73 °F Overcast. 3 mph 81% 29.84 "Hg 10 mi
1:35 pm 73 °F Overcast. 5 mph 80% 29.85 "Hg 10 mi
12:55 pm 72 °F Overcast. 5 mph 81% 29.86 "Hg 10 mi
12:35 pm 70 °F Overcast. No wind 83% 29.87 "Hg 10 mi
11:55 am 67 °F Low clouds. 3 mph 88% 29.90 "Hg 10 mi
11:35 am 67 °F Low clouds. 7 mph 88% 29.91 "Hg 10 mi
11:15 am 66 °F Low clouds. 6 mph 89% 29.91 "Hg 10 mi
10:55 am 65 °F Low clouds. 9 mph 89% 29.92 "Hg 10 mi
10:35 am 65 °F Low clouds. 8 mph 90% 29.92 "Hg 10 mi
9:55 am 65 °F Overcast. 6 mph 88% 29.94 "Hg 9 mi
9:35 am 64 °F Overcast. 3 mph 88% 29.94 "Hg 9 mi
9:15 am 64 °F Overcast. 8 mph 87% 29.94 "Hg 9 mi
8:55 am 64 °F Overcast. 5 mph 88% 29.93 "Hg 9 mi
8:35 am 64 °F Overcast. 3 mph 88% 29.94 "Hg 8 mi
7:55 am 64 °F Overcast. 5 mph 88% 29.93 "Hg 9 mi
7:35 am 64 °F Overcast. 5 mph 89% 29.93 "Hg 9 mi
7:15 am 64 °F Overcast. 6 mph 89% 29.92 "Hg 9 mi
6:55 am 64 °F Overcast. 8 mph 87% 29.91 "Hg 10 mi
6:35 am 64 °F Light rain. Overcast. 7 mph 87% 29.92 "Hg 9 mi
5:55 am 65 °F Overcast. 3 mph 83% 29.93 "Hg 10 mi
5:35 am 65 °F Overcast. 3 mph 83% 29.93 "Hg 10 mi
5:15 am 65 °F Overcast. 6 mph 80% 29.93 "Hg 10 mi
4:55 am 65 °F Overcast. No wind 81% 29.92 "Hg 10 mi
4:35 am 64 °F Overcast. 5 mph 82% 29.93 "Hg 10 mi
3:55 am 65 °F Light rain. Overcast. 3 mph 78% 29.93 "Hg 9 mi
3:35 am 66 °F Overcast. 3 mph 77% 29.94 "Hg 10 mi
2:55 am 66 °F Overcast. 6 mph 73% 29.94 "Hg 10 mi
2:35 am 66 °F Overcast. 8 mph 77% 29.94 "Hg 10 mi
2:15 am 66 °F Overcast. 3 mph 75% 29.96 "Hg 10 mi
1:55 am 66 °F Overcast. 5 mph 73% 29.96 "Hg 10 mi
1:35 am 66 °F Overcast. 6 mph 73% 29.96 "Hg 10 mi
12:55 am 66 °F Overcast. 8 mph 75% 29.96 "Hg 10 mi
12:35 am 66 °F Overcast. 6 mph 75% 29.96 "Hg 10 mi
12:15 am 66 °F Overcast. 7 mph 74% 29.96 "Hg 10 mi
11:55 pm
Thu, May 7
66 °F Overcast. 10 mph 78% 29.93 "Hg 10 mi
11:35 pm 66 °F Overcast. 6 mph 80% 29.98 "Hg 10 mi
Weather by CustomWeather, © 2026

See weather overview